createdAt,value
2017-04-21T00:00:52.327Z,0
2017-04-21T00:01:54.127Z,0
2017-04-21T00:02:55.952Z,0
2017-04-21T00:03:57.759Z,0
2017-04-21T00:04:59.907Z,0
2017-04-21T00:06:01.832Z,0
2017-04-21T00:07:03.664Z,0
2017-04-21T00:08:05.471Z,0
2017-04-21T00:09:07.641Z,0
2017-04-21T00:10:09.454Z,0
2017-04-21T00:11:11.257Z,0
2017-04-21T00:12:13.124Z,0
2017-04-21T00:13:14.991Z,0
2017-04-21T00:14:16.819Z,0
2017-04-21T00:15:18.618Z,0
2017-04-21T00:16:20.423Z,0
2017-04-21T00:17:22.430Z,0
2017-04-21T00:18:24.233Z,0
2017-04-21T00:19:26.057Z,0
2017-04-21T00:20:27.858Z,0
2017-04-21T00:21:29.994Z,0
2017-04-21T00:22:31.791Z,0
2017-04-21T00:23:33.589Z,0
2017-04-21T00:24:35.395Z,0
2017-04-21T00:25:37.196Z,0
2017-04-21T00:26:39.017Z,0
2017-04-21T00:27:41.161Z,0
2017-04-21T00:28:43.228Z,0
2017-04-21T00:29:45.654Z,0
2017-04-21T00:30:47.510Z,0
2017-04-21T00:31:49.329Z,0
2017-04-21T00:32:51.145Z,0
2017-04-21T00:33:52.953Z,0
2017-04-21T00:34:54.778Z,0
2017-04-21T00:35:56.574Z,0
2017-04-21T00:36:58.394Z,0
2017-04-21T00:38:00.396Z,0
2017-04-21T00:39:02.822Z,0
2017-04-21T00:40:04.843Z,0
2017-04-21T00:41:06.689Z,0
2017-04-21T00:42:08.490Z,0
2017-04-21T00:43:10.297Z,0
2017-04-21T00:44:12.097Z,0
2017-04-21T00:45:14.289Z,0
2017-04-21T00:46:16.095Z,0
2017-04-21T00:47:17.917Z,0
2017-04-21T00:48:19.721Z,0
2017-04-21T00:49:21.860Z,0
2017-04-21T00:50:23.661Z,0
2017-04-21T00:51:25.665Z,0
2017-04-21T00:52:27.472Z,0
2017-04-21T00:53:29.268Z,0
2017-04-21T00:54:31.418Z,0
2017-04-21T00:55:33.218Z,0
2017-04-21T00:56:35.371Z,0
2017-04-21T00:57:37.171Z,0
2017-04-21T00:58:39.355Z,0
2017-04-21T00:59:41.161Z,0
2017-04-21T01:00:42.961Z,0
2017-04-21T01:01:44.766Z,0
2017-04-21T01:02:46.803Z,0
2017-04-21T01:03:48.602Z,0
2017-04-21T01:04:50.410Z,0
2017-04-21T01:05:52.546Z,0
2017-04-21T01:06:54.341Z,0
2017-04-21T01:07:56.142Z,0
2017-04-21T01:08:57.949Z,0
2017-04-21T01:09:59.749Z,0
2017-04-21T01:11:01.566Z,0
2017-04-21T01:12:03.372Z,0
2017-04-21T01:13:05.600Z,0
2017-04-21T01:14:07.468Z,0
2017-04-21T01:15:09.274Z,0
2017-04-21T01:16:11.073Z,0
2017-04-21T01:17:12.893Z,0
2017-04-21T01:18:30.082Z,0
2017-04-21T01:19:32.244Z,0
2017-04-21T01:20:34.417Z,0
2017-04-21T01:21:36.234Z,0
2017-04-21T01:22:38.042Z,0
2017-04-21T01:23:39.844Z,0
2017-04-21T01:24:42.039Z,0
2017-04-21T01:25:43.844Z,0
2017-04-21T01:26:45.731Z,0
2017-04-21T01:27:47.717Z,0
2017-04-21T01:28:49.590Z,0
2017-04-21T01:29:51.395Z,0
2017-04-21T01:30:53.196Z,0
2017-04-21T01:31:55.001Z,0
2017-04-21T01:32:56.811Z,0
2017-04-21T01:33:58.648Z,0
2017-04-21T01:35:01.240Z,0
2017-04-21T01:36:03.376Z,0
2017-04-21T01:37:05.514Z,0
2017-04-21T01:38:07.339Z,0
2017-04-21T01:39:09.733Z,0
2017-04-21T01:40:11.539Z,0
2017-04-21T01:41:13.340Z,0
2017-04-21T01:42:15.145Z,0
2017-04-21T01:43:16.950Z,0
2017-04-21T01:44:18.751Z,0
2017-04-21T01:45:20.928Z,0
2017-04-21T01:46:22.728Z,0
2017-04-21T01:47:24.608Z,0
2017-04-21T01:48:26.474Z,0
2017-04-21T01:49:28.275Z,0
2017-04-21T01:50:30.092Z,0
2017-04-21T01:51:31.894Z,0
2017-04-21T01:52:33.694Z,0
2017-04-21T01:53:35.867Z,0
2017-04-21T01:54:38.344Z,0
2017-04-21T01:55:41.340Z,0
2017-04-21T01:56:43.430Z,0
2017-04-21T01:57:45.238Z,0
2017-04-21T01:58:47.045Z,0
2017-04-21T01:59:49.218Z,0
2017-04-21T02:00:51.030Z,0
2017-04-21T02:01:53.210Z,0
2017-04-21T02:02:55.126Z,0
2017-04-21T02:03:57.016Z,0
2017-04-21T02:04:58.829Z,0
2017-04-21T02:06:01.306Z,0
2017-04-21T02:07:03.156Z,0
2017-04-21T02:08:04.999Z,0
2017-04-21T02:09:06.798Z,0
2017-04-21T02:10:09.475Z,0
2017-04-21T02:11:11.731Z,0
2017-04-21T02:12:13.867Z,0
2017-04-21T02:13:15.728Z,0
2017-04-21T02:14:17.586Z,0
2017-04-21T02:15:20.048Z,0
2017-04-21T02:16:21.853Z,0
2017-04-21T02:17:24.218Z,0
2017-04-21T02:18:26.356Z,0
2017-04-21T02:19:28.151Z,0
2017-04-21T02:20:29.954Z,0
2017-04-21T02:21:31.749Z,0
2017-04-21T02:22:33.547Z,0
2017-04-21T02:23:35.725Z,0
2017-04-21T02:24:37.868Z,0
2017-04-21T02:25:40.003Z,0
2017-04-21T02:26:42.498Z,0
2017-04-21T02:29:34.380Z,0
2017-04-21T02:30:36.257Z,0
2017-04-21T02:31:38.076Z,0
2017-04-21T02:32:39.875Z,0
2017-04-21T02:33:41.673Z,0
2017-04-21T02:34:43.907Z,0
2017-04-21T02:35:45.994Z,0
2017-04-21T02:36:47.813Z,0
2017-04-21T02:37:49.649Z,0
2017-04-21T02:38:52.126Z,0
2017-04-21T02:39:54.753Z,0
2017-04-21T02:40:56.598Z,0
2017-04-21T02:41:58.442Z,0
2017-04-21T02:43:00.239Z,0
2017-04-21T02:44:02.042Z,0
2017-04-21T02:45:03.846Z,0
2017-04-21T02:46:05.989Z,0
2017-04-21T02:47:07.800Z,0
2017-04-21T02:48:09.599Z,0
2017-04-21T02:49:11.402Z,0
2017-04-21T02:50:13.586Z,0
2017-04-21T02:51:15.724Z,0
2017-04-21T02:52:17.574Z,0
2017-04-21T02:53:19.381Z,0
2017-04-21T02:54:21.193Z,0
2017-04-21T02:55:23.836Z,0
2017-04-21T02:56:25.636Z,0
2017-04-21T02:57:27.910Z,0
2017-04-21T02:58:30.345Z,0
2017-04-21T02:59:32.171Z,0
2017-04-21T03:00:34.348Z,0
2017-04-21T03:01:36.170Z,0
2017-04-21T03:02:37.996Z,0
2017-04-21T03:03:40.156Z,0
2017-04-21T03:04:41.994Z,0
2017-04-21T03:05:44.193Z,0
2017-04-21T03:06:46.055Z,0
2017-04-21T03:07:47.877Z,0
2017-04-21T03:08:49.684Z,0
2017-04-21T03:09:51.974Z,0
2017-04-21T03:10:53.843Z,0
2017-04-21T03:11:55.662Z,0
2017-04-21T03:12:57.479Z,0
2017-04-21T03:13:59.630Z,0
2017-04-21T03:15:01.463Z,0
2017-04-21T03:16:03.272Z,0
2017-04-21T03:17:05.427Z,0
2017-04-21T03:18:07.254Z,0
2017-04-21T03:19:09.058Z,0
2017-04-21T03:20:11.250Z,0
2017-04-21T03:21:13.886Z,0
2017-04-21T03:22:15.688Z,0
2017-04-21T03:23:17.489Z,0
2017-04-21T03:24:19.348Z,0
2017-04-21T03:25:21.198Z,1
2017-04-21T03:26:23.000Z,1
2017-04-21T03:27:25.209Z,1
2017-04-21T03:28:27.737Z,1
2017-04-21T03:29:29.931Z,2
2017-04-21T03:30:31.768Z,2
2017-04-21T03:31:33.914Z,2
2017-04-21T03:32:35.841Z,1
2017-04-21T03:33:37.986Z,1
2017-04-21T03:34:39.784Z,3
2017-04-21T03:35:41.585Z,3
2017-04-21T03:36:43.382Z,3
2017-04-21T03:37:45.188Z,4
2017-04-21T03:38:46.992Z,4
2017-04-21T03:39:49.506Z,6
2017-04-21T03:40:51.326Z,7
2017-04-21T03:41:53.147Z,8
2017-04-21T03:42:55.030Z,8
2017-04-21T03:43:57.275Z,11
2017-04-21T03:44:59.455Z,13
2017-04-21T03:46:01.296Z,14
2017-04-21T03:47:03.113Z,15
2017-04-21T03:48:05.407Z,19
2017-04-21T03:49:07.259Z,22
2017-04-21T03:50:09.095Z,27
2017-04-21T03:51:10.895Z,32
2017-04-21T03:52:13.090Z,34
2017-04-21T03:53:15.780Z,35
2017-04-21T03:54:18.048Z,38
2017-04-21T03:55:20.394Z,41
2017-04-21T03:56:22.353Z,46
2017-04-21T03:57:24.561Z,54
2017-04-21T03:58:26.430Z,61
2017-04-21T03:59:28.245Z,64
2017-04-21T04:00:30.042Z,66
2017-04-21T04:01:31.849Z,75
2017-04-21T04:02:33.646Z,87
2017-04-21T04:03:35.788Z,101
2017-04-21T04:04:37.941Z,105
2017-04-21T04:05:39.816Z,113
2017-04-21T04:06:41.613Z,124
2017-04-21T04:07:43.494Z,136
2017-04-21T04:08:45.356Z,144
2017-04-21T04:09:47.217Z,151
2017-04-21T04:10:49.023Z,167
2017-04-21T04:11:50.844Z,177
2017-04-21T04:12:52.646Z,178
2017-04-21T04:13:54.477Z,189
2017-04-21T04:14:56.334Z,203
2017-04-21T04:15:58.471Z,198
2017-04-21T04:17:00.331Z,199
2017-04-21T04:18:02.156Z,214
2017-04-21T04:19:03.956Z,220
2017-04-21T04:20:06.151Z,224
2017-04-21T04:21:07.950Z,238
2017-04-21T04:22:09.752Z,247
2017-04-21T04:23:11.561Z,252
2017-04-21T04:24:13.405Z,258
2017-04-21T04:25:15.279Z,273
2017-04-21T04:26:17.114Z,277
2017-04-21T04:27:18.919Z,283
2017-04-21T04:28:20.722Z,289
2017-04-21T04:29:22.523Z,301
2017-04-21T04:30:24.324Z,326
2017-04-21T04:31:26.308Z,348
2017-04-21T04:32:28.476Z,368
2017-04-21T04:33:30.279Z,396
2017-04-21T04:34:32.081Z,415
2017-04-21T04:35:33.884Z,428
2017-04-21T04:36:36.068Z,436
2017-04-21T04:37:38.236Z,442
2017-04-21T04:38:40.059Z,464
2017-04-21T04:39:41.858Z,482
2017-04-21T04:40:43.662Z,497
2017-04-21T04:41:45.458Z,505
2017-04-21T04:42:47.851Z,502
2017-04-21T04:43:50.514Z,524
2017-04-21T04:44:53.073Z,545
2017-04-21T04:45:55.009Z,574
2017-04-21T04:46:56.812Z,604
2017-04-21T04:47:58.607Z,611
2017-04-21T04:49:00.413Z,635
2017-04-21T04:50:02.219Z,652
2017-04-21T04:51:04.020Z,634
2017-04-21T04:52:06.181Z,656
2017-04-21T04:53:07.987Z,713
2017-04-21T04:54:09.860Z,731
2017-04-21T04:55:12.448Z,750
2017-04-21T04:56:14.595Z,748
2017-04-21T04:57:16.437Z,715
2017-04-21T04:58:18.575Z,711
2017-04-21T04:59:20.379Z,735
2017-04-21T05:00:22.181Z,767
2017-04-21T05:01:24.321Z,765
2017-04-21T05:02:26.134Z,772
2017-04-21T05:03:27.936Z,789
2017-04-21T05:04:29.744Z,772
2017-04-21T05:05:31.547Z,802
2017-04-21T05:06:33.670Z,851
2017-04-21T05:07:35.673Z,879
2017-04-21T05:08:37.479Z,902
2017-04-21T05:09:39.294Z,918
2017-04-21T05:10:41.099Z,939
2017-04-21T05:11:42.920Z,956
2017-04-21T05:12:44.720Z,957
2017-04-21T05:13:46.514Z,981
2017-04-21T05:14:48.343Z,988
2017-04-21T05:15:50.483Z,995
2017-04-21T05:16:52.632Z,1024
2017-04-21T05:17:54.479Z,1035
2017-04-21T05:18:56.278Z,1043
2017-04-21T05:19:58.085Z,1094
2017-04-21T05:20:59.888Z,1171
2017-04-21T05:22:01.692Z,1269
2017-04-21T05:23:03.833Z,1292
2017-04-21T05:24:05.641Z,1342
2017-04-21T05:26:24.799Z,1342
2017-04-21T05:27:26.595Z,1386
2017-04-21T05:28:28.401Z,1344
2017-04-21T05:29:30.539Z,1377
2017-04-21T05:30:32.375Z,1438
2017-04-21T05:31:34.175Z,1512
2017-04-21T05:32:36.249Z,1513
2017-04-21T05:33:38.056Z,1546
2017-04-21T05:34:39.922Z,1594
2017-04-21T05:35:41.772Z,1598
2017-04-21T05:36:43.572Z,1627
2017-04-21T05:37:45.384Z,1669
2017-04-21T05:38:47.558Z,1718
2017-04-21T05:39:49.379Z,1785
2017-04-21T05:40:51.462Z,1739
2017-04-21T05:41:53.632Z,1744
2017-04-21T05:42:55.483Z,1788
2017-04-21T05:43:57.383Z,1906
2017-04-21T05:44:59.519Z,2014
2017-04-21T05:46:01.324Z,2170
2017-04-21T05:47:03.140Z,2180
2017-04-21T05:48:04.939Z,2257
2017-04-21T05:49:06.737Z,2280
2017-04-21T05:50:08.895Z,2247
2017-04-21T05:51:11.060Z,2085
2017-04-21T05:52:12.869Z,2076
2017-04-21T05:53:14.675Z,2187
2017-04-21T05:54:16.811Z,2330
2017-04-21T05:55:18.838Z,2386
2017-04-21T05:56:20.891Z,2394
2017-04-21T05:57:22.925Z,2553
2017-04-21T05:58:24.795Z,2593
2017-04-21T05:59:26.640Z,2727
2017-04-21T06:00:28.819Z,2940
2017-04-21T06:01:30.634Z,3122
2017-04-21T06:02:32.456Z,3184
2017-04-21T06:03:34.275Z,3256
2017-04-21T06:04:36.069Z,3329
2017-04-21T06:05:37.876Z,3353
2017-04-21T06:06:40.141Z,3281
2017-04-21T06:07:41.979Z,3202
2017-04-21T06:08:44.466Z,3140
2017-04-21T06:09:46.603Z,3435
2017-04-21T06:10:48.406Z,3497
2017-04-21T06:11:50.211Z,3622
2017-04-21T06:12:52.015Z,4011
2017-04-21T06:13:53.819Z,4206
2017-04-21T06:14:55.639Z,4195
2017-04-21T06:15:57.445Z,4076
2017-04-21T06:16:59.590Z,4252
2017-04-21T06:18:01.472Z,4190
2017-04-21T06:19:03.275Z,4057
2017-04-21T06:20:05.075Z,3734
2017-04-21T06:21:06.877Z,3609
2017-04-21T06:22:08.672Z,3627
2017-04-21T06:23:10.477Z,3442
2017-04-21T06:24:12.281Z,3822
2017-04-21T06:25:14.078Z,3875
2017-04-21T06:26:15.880Z,4143
2017-04-21T06:27:17.705Z,4558
2017-04-21T06:28:19.511Z,4305
2017-04-21T06:29:21.397Z,4130
2017-04-21T06:30:23.200Z,4181
2017-04-21T06:31:25.000Z,3871
2017-04-21T06:32:27.141Z,3864
2017-04-21T06:33:28.944Z,3697
2017-04-21T06:34:30.745Z,4032
2017-04-21T06:35:32.540Z,4080
2017-04-21T06:36:34.346Z,3985
2017-04-21T06:37:36.155Z,4172
2017-04-21T06:38:37.951Z,4480
2017-04-21T06:39:39.757Z,4749
2017-04-21T06:40:41.642Z,4929
2017-04-21T06:41:43.450Z,5222
2017-04-21T06:42:45.249Z,5380
2017-04-21T06:43:47.049Z,4879
2017-04-21T06:44:48.853Z,4690
2017-04-21T06:45:50.671Z,4279
2017-04-21T06:46:52.474Z,4051
2017-04-21T06:47:54.275Z,3934
2017-04-21T06:48:56.079Z,3831
2017-04-21T06:49:57.882Z,3952
2017-04-21T06:50:59.682Z,3906
2017-04-21T06:52:01.587Z,3380
2017-04-21T06:53:03.417Z,3405
2017-04-21T06:54:05.221Z,3198
2017-04-21T06:55:07.021Z,3262
2017-04-21T06:56:08.826Z,3517
2017-04-21T06:57:10.628Z,3939
2017-04-21T06:58:13.115Z,4058
2017-04-21T06:59:14.922Z,3986
2017-04-21T07:00:17.074Z,3730
2017-04-21T07:01:18.878Z,3745
2017-04-21T07:02:21.015Z,4089
2017-04-21T07:03:23.153Z,4031
2017-04-21T07:04:25.075Z,4253
2017-04-21T07:05:27.209Z,4667
2017-04-21T07:06:29.011Z,4579
2017-04-21T07:07:31.184Z,5025
2017-04-21T07:08:33.323Z,4825
2017-04-21T07:09:35.126Z,4889
2017-04-21T07:10:36.927Z,5250
2017-04-21T07:11:38.733Z,4643
2017-04-21T07:12:40.527Z,4478
2017-04-21T07:13:42.327Z,4365
2017-04-21T07:14:44.256Z,4828
2017-04-21T07:15:46.424Z,4995
2017-04-21T07:16:48.309Z,5180
2017-04-21T07:17:50.581Z,4661
2017-04-21T07:18:52.905Z,4104
2017-04-21T07:19:55.232Z,4263
2017-04-21T07:20:57.600Z,4240
2017-04-21T07:21:59.852Z,4958
2017-04-21T07:23:02.146Z,5062
2017-04-21T07:24:04.316Z,5659
2017-04-21T07:25:06.635Z,6159
2017-04-21T07:26:08.735Z,5885
2017-04-21T07:27:10.769Z,6022
2017-04-21T07:28:13.681Z,5608
2017-04-21T07:29:15.482Z,7357
2017-04-21T07:30:17.619Z,6538
2017-04-21T07:31:19.414Z,5978
2017-04-21T07:32:21.216Z,7116
2017-04-21T07:33:23.017Z,6639
2017-04-21T07:34:24.816Z,4907
2017-04-21T07:35:26.966Z,6561
2017-04-21T07:36:28.771Z,6504
2017-04-21T07:37:30.585Z,5627
2017-04-21T07:38:32.434Z,4624
2017-04-21T07:39:34.576Z,6201
2017-04-21T07:40:36.395Z,8908
2017-04-21T07:42:40.342Z,9269
2017-04-21T07:43:42.286Z,12540
2017-04-21T07:44:44.431Z,10946
2017-04-21T07:45:46.570Z,9394
2017-04-21T07:46:48.375Z,10728
2017-04-21T07:47:50.179Z,7013
2017-04-21T07:48:51.982Z,6931
2017-04-21T07:49:53.787Z,7322
2017-04-21T07:50:55.591Z,5378
2017-04-21T07:51:57.407Z,6811
2017-04-21T07:52:59.212Z,5358
2017-04-21T07:54:01.011Z,5446
2017-04-21T07:55:02.952Z,5542
2017-04-21T07:56:04.756Z,7291
2017-04-21T07:57:06.553Z,6962
2017-04-21T07:58:08.359Z,6687
2017-04-21T07:59:10.178Z,5800
2017-04-21T08:00:11.983Z,5386
2017-04-21T08:02:52.867Z,9667
2017-04-21T08:03:54.666Z,7260
2017-04-21T08:04:56.474Z,5257
2017-04-21T08:05:58.287Z,5340
2017-04-21T08:07:00.097Z,5815
2017-04-21T08:08:01.903Z,4615
2017-04-21T08:09:03.706Z,4231
2017-04-21T08:10:05.509Z,4455
2017-04-21T08:11:07.828Z,5054
2017-04-21T08:12:09.967Z,4954
2017-04-21T08:13:11.769Z,5851
2017-04-21T08:14:13.563Z,6005
2017-04-21T08:15:15.367Z,7282
2017-04-21T08:16:17.168Z,6470
2017-04-21T08:17:18.995Z,5557
2017-04-21T08:18:21.144Z,6194
2017-04-21T08:19:23.299Z,7227
2017-04-21T08:20:25.436Z,5957
2017-04-21T08:21:27.582Z,5989
2017-04-21T08:22:29.481Z,7141
2017-04-21T08:23:31.280Z,9756
2017-04-21T08:24:33.089Z,8414
2017-04-21T08:25:34.897Z,8908
2017-04-21T08:26:36.697Z,8378
2017-04-21T08:27:38.832Z,8474
2017-04-21T08:28:40.639Z,6682
2017-04-21T08:29:42.448Z,6823
2017-04-21T08:30:44.248Z,6876
2017-04-21T08:31:46.098Z,8122
2017-04-21T08:32:48.441Z,6944
2017-04-21T08:33:50.248Z,10377
2017-04-21T08:34:52.051Z,11138
2017-04-21T08:35:53.854Z,8716
2017-04-21T08:36:55.657Z,8219
2017-04-21T08:37:57.811Z,7504
2017-04-21T08:38:59.619Z,8795
2017-04-21T08:40:01.416Z,10763
2017-04-21T08:41:03.224Z,8557
2017-04-21T08:42:05.022Z,6555
2017-04-21T08:43:07.173Z,8133
2017-04-21T08:44:08.972Z,8589
2017-04-21T08:45:10.777Z,9361
2017-04-21T08:46:12.585Z,9745
2017-04-21T08:47:14.398Z,10244
2017-04-21T08:48:16.204Z,9078
2017-04-21T08:49:18.010Z,11518
2017-04-21T08:50:20.498Z,9209
2017-04-21T08:51:22.302Z,8606
2017-04-21T08:52:24.116Z,7198
2017-04-21T08:53:25.916Z,9425
2017-04-21T08:54:27.953Z,11080
2017-04-21T08:55:29.749Z,13754
2017-04-21T08:56:31.557Z,11892
2017-04-21T08:57:33.362Z,9936
2017-04-21T08:58:35.171Z,12623
2017-04-21T08:59:36.981Z,13833
2017-04-21T09:00:38.774Z,14598
2017-04-21T09:01:40.585Z,12235
2017-04-21T09:02:42.404Z,15200
2017-04-21T09:03:44.208Z,14052
2017-04-21T09:04:46.013Z,11633
2017-04-21T09:05:48.043Z,13935
2017-04-21T09:06:49.854Z,14114
2017-04-21T09:07:51.658Z,12255
2017-04-21T09:08:53.467Z,13329
2017-04-21T09:09:55.273Z,12807
2017-04-21T09:10:57.077Z,13902
2017-04-21T09:11:59.248Z,14351
2017-04-21T09:13:01.388Z,10764
2017-04-21T09:14:03.195Z,12171
2017-04-21T09:15:05.673Z,15338
2017-04-21T09:16:07.477Z,18361
2017-04-21T09:17:09.446Z,17563
2017-04-21T09:18:11.254Z,19577
2017-04-21T09:19:13.065Z,17785
2017-04-21T09:20:14.875Z,18760
2017-04-21T09:21:16.677Z,19358
2017-04-21T09:22:18.477Z,16285
2017-04-21T09:23:20.282Z,16416
2017-04-21T09:24:22.094Z,16861
2017-04-21T09:25:23.895Z,16861
2017-04-21T09:26:25.701Z,16414
2017-04-21T09:27:27.591Z,14406
2017-04-21T09:28:29.790Z,19541
2017-04-21T09:29:31.611Z,17628
2017-04-21T09:30:33.469Z,18211
2017-04-21T09:33:53.233Z,19569
2017-04-21T09:36:35.359Z,20693
2017-04-21T09:37:37.409Z,17940
2017-04-21T09:38:53.896Z,18278
2017-04-21T09:39:55.956Z,15359
2017-04-21T09:40:57.763Z,15720
2017-04-21T09:41:59.578Z,13719
2017-04-21T09:43:58.283Z,14458
2017-04-21T09:45:01.912Z,13804
2017-04-21T09:46:03.719Z,13291
2017-04-21T09:47:05.520Z,11648
2017-04-21T09:48:07.328Z,14790
2017-04-21T09:49:09.142Z,12477
2017-04-21T09:50:10.947Z,11158
2017-04-21T09:52:33.209Z,11281
2017-04-21T10:05:34.952Z,7132
2017-04-21T10:09:59.313Z,11932
2017-04-21T10:11:01.117Z,10818
2017-04-21T10:12:03.266Z,10890
2017-04-21T10:13:05.073Z,10419
2017-04-21T10:14:06.889Z,10674
2017-04-21T10:15:09.186Z,10517
2017-04-21T10:16:11.157Z,11411
2017-04-21T10:17:12.957Z,12480
2017-04-21T10:18:14.764Z,13270
2017-04-21T10:19:16.573Z,13238
2017-04-21T10:20:18.715Z,13691
2017-04-21T10:21:20.524Z,14340
2017-04-21T10:22:22.329Z,13766
2017-04-21T10:23:24.139Z,13599
2017-04-21T10:24:25.948Z,12720
2017-04-21T10:25:28.091Z,12559
2017-04-21T10:26:29.897Z,12263
2017-04-21T10:27:31.705Z,12196
2017-04-21T10:28:33.766Z,12753
2017-04-21T10:29:35.924Z,13239
2017-04-21T10:30:37.733Z,13579
2017-04-21T10:31:39.547Z,14168
2017-04-21T10:32:41.370Z,14479
2017-04-21T10:33:43.177Z,14847
2017-04-21T10:34:44.982Z,15111
2017-04-21T10:35:46.786Z,14814
2017-04-21T10:36:48.599Z,15038
2017-04-21T10:37:50.399Z,15540
2017-04-21T10:38:52.206Z,14501
2017-04-21T10:39:54.011Z,13462
2017-04-21T10:40:55.889Z,13792
2017-04-21T10:41:57.695Z,13695
2017-04-21T10:42:59.839Z,14550
2017-04-21T10:44:01.650Z,12903
2017-04-21T10:45:03.453Z,12155
2017-04-21T10:46:05.261Z,12265
2017-04-21T10:47:07.075Z,12888
2017-04-21T10:48:08.881Z,11750
2017-04-21T10:49:10.691Z,10301
2017-04-21T10:50:12.500Z,11780
2017-04-21T10:51:14.307Z,11569
2017-04-21T10:52:16.113Z,11977
2017-04-21T10:53:18.066Z,10910
2017-04-21T10:54:19.880Z,10491
2017-04-21T10:55:21.685Z,11755
2017-04-21T10:56:23.497Z,15312
2017-04-21T10:57:25.318Z,15405
2017-04-21T10:58:27.128Z,16694
2017-04-21T10:59:28.942Z,17075
2017-04-21T11:00:30.749Z,17440
2017-04-21T11:01:32.557Z,18326
2017-04-21T11:02:34.363Z,18938
2017-04-21T11:03:36.506Z,17596
2017-04-21T11:04:38.315Z,16093
2017-04-21T11:05:40.379Z,14574
2017-04-21T11:06:42.191Z,16649
2017-04-21T11:07:44.000Z,19079
2017-04-21T11:08:45.808Z,21906
2017-04-21T11:09:47.620Z,65536
2017-04-21T11:10:49.428Z,65536
2017-04-21T11:11:51.241Z,29309
2017-04-21T11:12:53.046Z,29391
2017-04-21T11:13:54.864Z,36869
2017-04-21T11:14:57.011Z,34103
2017-04-21T11:15:58.823Z,38847
2017-04-21T11:17:00.627Z,38266
2017-04-21T11:18:02.656Z,36260
2017-04-21T11:19:04.463Z,34745
2017-04-21T11:20:06.272Z,18173
2017-04-21T11:21:08.074Z,16118
2017-04-21T11:22:09.882Z,11774
2017-04-21T11:23:11.694Z,12159
2017-04-21T11:24:13.510Z,10834
2017-04-21T11:25:15.319Z,8984
2017-04-21T11:26:17.127Z,9482
2017-04-21T11:27:18.935Z,9815
2017-04-21T11:28:20.749Z,9172
2017-04-21T11:29:22.600Z,8437
2017-04-21T11:30:24.416Z,9259
2017-04-21T11:31:26.223Z,8433
2017-04-21T11:32:28.034Z,7403
2017-04-21T11:33:29.843Z,7388
2017-04-21T11:34:32.005Z,7424
2017-04-21T11:35:33.812Z,6666
2017-04-21T11:36:35.622Z,7196
2017-04-21T11:37:37.770Z,6935
2017-04-21T11:38:39.591Z,8476
2017-04-21T11:39:41.402Z,8331
2017-04-21T11:40:43.210Z,8722
2017-04-21T11:41:45.134Z,12162
2017-04-21T11:42:46.952Z,12114
2017-04-21T11:43:48.778Z,12099
2017-04-21T11:44:50.921Z,11448
2017-04-21T11:45:52.729Z,15288
2017-04-21T11:46:54.537Z,13483
2017-04-21T11:47:56.344Z,12895
2017-04-21T11:48:58.151Z,10374
2017-04-21T11:49:59.963Z,10396
2017-04-21T11:51:01.770Z,12062
2017-04-21T11:52:03.578Z,11636
2017-04-21T11:53:05.728Z,13752
2017-04-21T11:54:07.584Z,17395
2017-04-21T11:55:09.394Z,12278
2017-04-21T11:56:11.202Z,14878
2017-04-21T11:57:13.012Z,15154
2017-04-21T11:58:14.812Z,10298
2017-04-21T11:59:16.628Z,9739
2017-04-21T12:00:18.433Z,10507
2017-04-21T12:01:20.245Z,13449
2017-04-21T12:02:22.050Z,17723
2017-04-21T12:03:23.864Z,14416
2017-04-21T12:04:25.674Z,9443
2017-04-21T12:05:27.602Z,13006
2017-04-21T12:06:29.412Z,11439
2017-04-21T12:07:31.216Z,11348
2017-04-21T12:08:33.022Z,13939
2017-04-21T12:09:35.341Z,12905
2017-04-21T12:10:37.149Z,16451
2017-04-21T12:11:38.974Z,13285
2017-04-21T12:12:40.781Z,13291
2017-04-21T12:13:42.604Z,10353
2017-04-21T12:14:44.414Z,12660
2017-04-21T12:15:46.229Z,14002
2017-04-21T12:16:48.040Z,10986
2017-04-21T12:17:49.847Z,11848
2017-04-21T12:18:51.661Z,9567
2017-04-21T12:19:53.473Z,9538
2017-04-21T12:20:55.277Z,10175
2017-04-21T12:21:57.086Z,10354
2017-04-21T12:22:59.246Z,9329
2017-04-21T12:24:01.059Z,9398
2017-04-21T12:25:02.868Z,9914
2017-04-21T12:26:04.679Z,10964
2017-04-21T12:27:06.486Z,9397
2017-04-21T12:28:08.291Z,10202
2017-04-21T12:29:10.106Z,11791
2017-04-21T12:30:12.363Z,13002
2017-04-21T12:31:14.168Z,15239
2017-04-21T12:32:15.982Z,18936
2017-04-21T12:33:18.128Z,17605
2017-04-21T12:34:19.938Z,18441
2017-04-21T12:35:21.746Z,23978
2017-04-21T12:36:23.893Z,26053
2017-04-21T12:37:25.702Z,25219
2017-04-21T12:38:27.514Z,22581
2017-04-21T12:39:29.326Z,26014
2017-04-21T12:40:31.138Z,65536
2017-04-21T12:41:32.987Z,28692
2017-04-21T12:42:34.797Z,23578
2017-04-21T12:43:36.601Z,20239
2017-04-21T12:44:38.413Z,17841
2017-04-21T12:45:40.225Z,15531
2017-04-21T12:46:42.034Z,14214
2017-04-21T12:47:43.842Z,14816
2017-04-21T12:48:45.648Z,14574
2017-04-21T12:49:47.500Z,13973
2017-04-21T12:50:49.671Z,13326
2017-04-21T12:51:52.391Z,11987
2017-04-21T12:52:54.841Z,10734
2017-04-21T12:53:57.911Z,10664
2017-04-21T12:55:00.319Z,11329
2017-04-21T12:56:02.401Z,10142
2017-04-21T12:57:04.473Z,7834
2017-04-21T12:58:06.705Z,8659
2017-04-21T12:59:08.699Z,8663
2017-04-21T13:00:10.776Z,8146
2017-04-21T13:01:13.157Z,7913
2017-04-21T13:02:15.353Z,7882
2017-04-21T13:03:17.468Z,8241
2017-04-21T13:04:20.217Z,8580
2017-04-21T13:05:22.210Z,8584
2017-04-21T13:06:24.429Z,7933
2017-04-21T13:07:26.473Z,6792
2017-04-21T13:08:28.668Z,7988
2017-04-21T13:09:30.629Z,7707
2017-04-21T13:10:32.624Z,6655
2017-04-21T13:11:34.675Z,5879
2017-04-21T13:12:36.819Z,4810
2017-04-21T13:13:39.221Z,4406
2017-04-21T13:14:41.291Z,3840
2017-04-21T13:15:44.011Z,3478
2017-04-21T13:16:46.154Z,4309
2017-04-21T13:17:48.233Z,4134
2017-04-21T13:18:50.413Z,3760
2017-04-21T13:19:52.836Z,3346
2017-04-21T13:20:54.910Z,3210
2017-04-21T13:21:56.901Z,3069
2017-04-21T13:22:59.270Z,3223
2017-04-21T13:24:01.243Z,2899
2017-04-21T13:25:03.314Z,1960
2017-04-21T13:26:05.658Z,2731
2017-04-21T13:27:07.560Z,2449
2017-04-21T13:28:09.525Z,2749
2017-04-21T13:29:11.603Z,2317
2017-04-21T13:30:13.649Z,2348
2017-04-21T13:31:15.795Z,2374
2017-04-21T13:32:17.608Z,3345
2017-04-21T13:33:19.810Z,3209
2017-04-21T13:34:21.619Z,2834
2017-04-21T13:35:23.746Z,2649
2017-04-21T13:36:25.951Z,2896
2017-04-21T13:37:27.793Z,3087
2017-04-21T13:38:29.601Z,3448
2017-04-21T13:39:31.755Z,2995
2017-04-21T13:40:33.577Z,2155
2017-04-21T13:41:35.418Z,2093
2017-04-21T13:42:37.229Z,2132
2017-04-21T13:43:39.723Z,3144
2017-04-21T13:44:41.544Z,2159
2017-04-21T13:45:43.351Z,1558
2017-04-21T13:46:45.166Z,1944
2017-04-21T13:47:46.974Z,2373
2017-04-21T13:48:48.835Z,3163
2017-04-21T13:49:50.981Z,3103
2017-04-21T13:50:52.806Z,2701
2017-04-21T13:51:55.232Z,1653
2017-04-21T13:52:57.490Z,1835
2017-04-21T13:53:59.701Z,2918
2017-04-21T13:55:01.518Z,2852
2017-04-21T13:56:03.334Z,2617
2017-04-21T13:57:05.138Z,2700
2017-04-21T13:58:06.945Z,2172
2017-04-21T13:59:08.753Z,1573
2017-04-21T14:00:10.612Z,1309
2017-04-21T14:01:12.480Z,2035
2017-04-21T14:02:14.774Z,3708
2017-04-21T14:03:17.586Z,3165
2017-04-21T14:04:19.722Z,2179
2017-04-21T14:05:21.731Z,2446
2017-04-21T14:06:23.956Z,1646
2017-04-21T14:07:25.819Z,1638
2017-04-21T14:08:28.008Z,1497
2017-04-21T14:09:29.827Z,1273
2017-04-21T14:10:31.632Z,1127
2017-04-21T14:11:33.441Z,1472
2017-04-21T14:12:35.249Z,1421
2017-04-21T14:13:37.078Z,1735
2017-04-21T14:14:39.043Z,2286
2017-04-21T14:15:40.848Z,4190
2017-04-21T14:16:42.673Z,5055
2017-04-21T14:17:44.878Z,7313
2017-04-21T14:18:46.745Z,6475
2017-04-21T14:19:48.934Z,6551
2017-04-21T14:20:50.817Z,6541
2017-04-21T14:21:52.677Z,6327
2017-04-21T14:22:54.540Z,6110
2017-04-21T14:23:56.363Z,5465
2017-04-21T14:24:58.539Z,5571
2017-04-21T14:26:00.551Z,5401
2017-04-21T14:27:02.362Z,6054
2017-04-21T14:28:04.215Z,6494
2017-04-21T14:29:06.073Z,6273
2017-04-21T14:30:07.890Z,4971
2017-04-21T14:31:09.705Z,4460